sensor_id;sensor_type;location;lat;lon;timestamp;P1;durP1;ratioP1;P2;durP2;ratioP2
14975;SDS011;7584;60.468;25.126;2023-04-26T00:01:25;3.83;;;3.43;;
14975;SDS011;7584;60.468;25.126;2023-04-26T00:03:51;7.90;;;2.77;;
14975;SDS011;7584;60.468;25.126;2023-04-26T00:06:16;6.43;;;3.30;;
14975;SDS011;7584;60.468;25.126;2023-04-26T00:08:42;4.77;;;3.10;;
14975;SDS011;7584;60.468;25.126;2023-04-26T00:11:08;7.83;;;2.67;;
14975;SDS011;7584;60.468;25.126;2023-04-26T00:13:33;6.27;;;3.43;;
14975;SDS011;7584;60.468;25.126;2023-04-26T00:15:58;4.13;;;2.80;;
14975;SDS011;7584;60.468;25.126;2023-04-26T00:18:23;5.90;;;2.90;;
14975;SDS011;7584;60.468;25.126;2023-04-26T00:20:49;3.33;;;3.00;;
14975;SDS011;7584;60.468;25.126;2023-04-26T00:23:14;6.73;;;2.90;;
14975;SDS011;7584;60.468;25.126;2023-04-26T00:25:40;5.43;;;2.83;;
14975;SDS011;7584;60.468;25.126;2023-04-26T00:28:05;3.87;;;3.23;;
14975;SDS011;7584;60.468;25.126;2023-04-26T00:30:31;3.57;;;2.83;;
14975;SDS011;7584;60.468;25.126;2023-04-26T00:32:58;3.73;;;2.50;;
14975;SDS011;7584;60.468;25.126;2023-04-26T00:35:23;5.00;;;3.27;;
14975;SDS011;7584;60.468;25.126;2023-04-26T00:37:49;3.27;;;2.53;;
14975;SDS011;7584;60.468;25.126;2023-04-26T00:40:14;4.93;;;3.40;;
14975;SDS011;7584;60.468;25.126;2023-04-26T00:42:41;4.83;;;3.10;;
14975;SDS011;7584;60.468;25.126;2023-04-26T00:45:06;5.67;;;3.53;;
14975;SDS011;7584;60.468;25.126;2023-04-26T00:47:31;4.50;;;3.17;;
14975;SDS011;7584;60.468;25.126;2023-04-26T00:49:57;5.73;;;2.83;;
14975;SDS011;7584;60.468;25.126;2023-04-26T00:52:23;4.93;;;2.83;;
14975;SDS011;7584;60.468;25.126;2023-04-26T00:54:48;5.10;;;2.90;;
14975;SDS011;7584;60.468;25.126;2023-04-26T00:57:15;6.57;;;2.60;;
14975;SDS011;7584;60.468;25.126;2023-04-26T00:59:40;2.80;;;2.60;;
14975;SDS011;7584;60.468;25.126;2023-04-26T01:02:06;4.73;;;3.20;;
14975;SDS011;7584;60.468;25.126;2023-04-26T01:04:31;6.17;;;3.30;;
14975;SDS011;7584;60.468;25.126;2023-04-26T01:06:58;5.20;;;2.80;;
14975;SDS011;7584;60.468;25.126;2023-04-26T01:09:23;7.67;;;2.90;;
14975;SDS011;7584;60.468;25.126;2023-04-26T01:11:49;4.93;;;3.37;;
14975;SDS011;7584;60.468;25.126;2023-04-26T01:14:14;4.93;;;3.40;;
14975;SDS011;7584;60.468;25.126;2023-04-26T01:16:40;3.63;;;2.80;;
14975;SDS011;7584;60.468;25.126;2023-04-26T01:19:08;5.07;;;3.60;;
14975;SDS011;7584;60.468;25.126;2023-04-26T01:21:37;4.83;;;2.83;;
14975;SDS011;7584;60.468;25.126;2023-04-26T01:24:03;4.10;;;3.30;;
14975;SDS011;7584;60.468;25.126;2023-04-26T01:26:28;4.63;;;3.50;;
14975;SDS011;7584;60.468;25.126;2023-04-26T01:28:54;6.17;;;3.37;;
14975;SDS011;7584;60.468;25.126;2023-04-26T01:31:19;6.40;;;3.03;;
14975;SDS011;7584;60.468;25.126;2023-04-26T01:33:45;5.23;;;3.30;;
14975;SDS011;7584;60.468;25.126;2023-04-26T01:36:10;4.17;;;3.60;;
14975;SDS011;7584;60.468;25.126;2023-04-26T01:38:36;3.93;;;3.40;;
14975;SDS011;7584;60.468;25.126;2023-04-26T01:41:01;4.93;;;3.63;;
14975;SDS011;7584;60.468;25.126;2023-04-26T01:43:26;5.73;;;3.30;;
14975;SDS011;7584;60.468;25.126;2023-04-26T01:45:52;6.57;;;3.40;;
14975;SDS011;7584;60.468;25.126;2023-04-26T01:48:17;4.87;;;3.47;;
14975;SDS011;7584;60.468;25.126;2023-04-26T01:50:42;4.97;;;3.60;;
14975;SDS011;7584;60.468;25.126;2023-04-26T01:53:07;6.37;;;4.17;;
14975;SDS011;7584;60.468;25.126;2023-04-26T01:55:33;4.17;;;3.33;;
14975;SDS011;7584;60.468;25.126;2023-04-26T01:57:58;4.87;;;3.73;;
14975;SDS011;7584;60.468;25.126;2023-04-26T02:00:23;4.80;;;4.23;;
14975;SDS011;7584;60.468;25.126;2023-04-26T02:02:49;6.00;;;3.87;;
14975;SDS011;7584;60.468;25.126;2023-04-26T02:05:14;6.73;;;3.60;;
14975;SDS011;7584;60.468;25.126;2023-04-26T02:07:40;8.30;;;3.87;;
14975;SDS011;7584;60.468;25.126;2023-04-26T02:10:05;4.93;;;4.00;;
14975;SDS011;7584;60.468;25.126;2023-04-26T02:12:30;12.83;;;4.07;;
14975;SDS011;7584;60.468;25.126;2023-04-26T02:14:56;8.07;;;4.23;;
14975;SDS011;7584;60.468;25.126;2023-04-26T02:17:21;7.87;;;4.47;;
14975;SDS011;7584;60.468;25.126;2023-04-26T02:19:46;7.07;;;4.33;;
14975;SDS011;7584;60.468;25.126;2023-04-26T02:22:12;8.77;;;4.47;;
14975;SDS011;7584;60.468;25.126;2023-04-26T02:24:37;7.40;;;4.50;;
14975;SDS011;7584;60.468;25.126;2023-04-26T02:27:02;7.27;;;4.53;;
14975;SDS011;7584;60.468;25.126;2023-04-26T02:29:28;7.23;;;3.87;;
14975;SDS011;7584;60.468;25.126;2023-04-26T02:31:53;5.67;;;4.40;;
14975;SDS011;7584;60.468;25.126;2023-04-26T02:34:18;12.90;;;5.00;;
14975;SDS011;7584;60.468;25.126;2023-04-26T02:36:44;6.43;;;4.80;;
14975;SDS011;7584;60.468;25.126;2023-04-26T02:39:09;10.07;;;4.67;;
14975;SDS011;7584;60.468;25.126;2023-04-26T02:41:36;8.77;;;5.07;;
14975;SDS011;7584;60.468;25.126;2023-04-26T02:44:01;6.03;;;4.87;;
14975;SDS011;7584;60.468;25.126;2023-04-26T02:46:26;7.03;;;4.30;;
14975;SDS011;7584;60.468;25.126;2023-04-26T02:48:51;7.47;;;4.50;;
14975;SDS011;7584;60.468;25.126;2023-04-26T02:51:17;8.07;;;3.90;;
14975;SDS011;7584;60.468;25.126;2023-04-26T02:53:42;6.43;;;4.73;;
14975;SDS011;7584;60.468;25.126;2023-04-26T02:56:07;7.87;;;4.00;;
14975;SDS011;7584;60.468;25.126;2023-04-26T02:58:33;4.83;;;4.03;;
14975;SDS011;7584;60.468;25.126;2023-04-26T03:00:58;8.10;;;4.37;;
14975;SDS011;7584;60.468;25.126;2023-04-26T03:03:24;7.60;;;3.73;;
14975;SDS011;7584;60.468;25.126;2023-04-26T03:05:49;5.30;;;3.70;;
14975;SDS011;7584;60.468;25.126;2023-04-26T03:08:15;8.97;;;4.00;;
14975;SDS011;7584;60.468;25.126;2023-04-26T03:10:40;7.50;;;4.00;;
14975;SDS011;7584;60.468;25.126;2023-04-26T03:13:05;7.17;;;4.00;;
14975;SDS011;7584;60.468;25.126;2023-04-26T03:15:31;6.33;;;3.67;;
14975;SDS011;7584;60.468;25.126;2023-04-26T03:17:56;6.63;;;3.93;;
14975;SDS011;7584;60.468;25.126;2023-04-26T03:20:24;4.93;;;3.90;;
14975;SDS011;7584;60.468;25.126;2023-04-26T03:22:50;8.33;;;4.17;;
14975;SDS011;7584;60.468;25.126;2023-04-26T03:25:15;6.27;;;3.97;;
14975;SDS011;7584;60.468;25.126;2023-04-26T03:27:40;9.77;;;4.10;;
14975;SDS011;7584;60.468;25.126;2023-04-26T03:30:06;6.67;;;3.97;;
14975;SDS011;7584;60.468;25.126;2023-04-26T03:32:31;10.33;;;3.80;;
14975;SDS011;7584;60.468;25.126;2023-04-26T03:34:57;11.10;;;4.10;;
14975;SDS011;7584;60.468;25.126;2023-04-26T03:37:22;5.73;;;3.77;;
14975;SDS011;7584;60.468;25.126;2023-04-26T03:39:48;4.70;;;3.67;;
14975;SDS011;7584;60.468;25.126;2023-04-26T03:42:15;7.73;;;3.83;;
14975;SDS011;7584;60.468;25.126;2023-04-26T03:44:41;8.03;;;3.77;;
14975;SDS011;7584;60.468;25.126;2023-04-26T03:47:06;8.40;;;3.50;;
14975;SDS011;7584;60.468;25.126;2023-04-26T03:49:31;9.03;;;3.67;;
14975;SDS011;7584;60.468;25.126;2023-04-26T03:51:56;6.17;;;3.77;;
14975;SDS011;7584;60.468;25.126;2023-04-26T03:54:22;3.93;;;3.40;;
14975;SDS011;7584;60.468;25.126;2023-04-26T03:56:47;9.27;;;3.70;;
14975;SDS011;7584;60.468;25.126;2023-04-26T03:59:12;6.17;;;3.87;;
14975;SDS011;7584;60.468;25.126;2023-04-26T04:01:38;5.80;;;3.80;;
14975;SDS011;7584;60.468;25.126;2023-04-26T04:04:03;6.17;;;3.40;;
14975;SDS011;7584;60.468;25.126;2023-04-26T04:06:28;6.17;;;3.67;;
14975;SDS011;7584;60.468;25.126;2023-04-26T04:08:53;8.27;;;4.10;;
14975;SDS011;7584;60.468;25.126;2023-04-26T04:11:20;5.13;;;3.33;;
14975;SDS011;7584;60.468;25.126;2023-04-26T04:13:45;5.30;;;3.33;;
14975;SDS011;7584;60.468;25.126;2023-04-26T04:16:10;7.10;;;3.13;;
14975;SDS011;7584;60.468;25.126;2023-04-26T04:18:36;6.50;;;3.30;;
14975;SDS011;7584;60.468;25.126;2023-04-26T04:21:01;7.00;;;3.60;;
14975;SDS011;7584;60.468;25.126;2023-04-26T04:23:27;5.37;;;2.87;;
14975;SDS011;7584;60.468;25.126;2023-04-26T04:25:52;7.53;;;3.30;;
14975;SDS011;7584;60.468;25.126;2023-04-26T04:28:17;5.07;;;3.43;;
14975;SDS011;7584;60.468;25.126;2023-04-26T04:30:43;6.63;;;3.00;;
14975;SDS011;7584;60.468;25.126;2023-04-26T04:33:08;6.13;;;3.67;;
14975;SDS011;7584;60.468;25.126;2023-04-26T04:35:34;4.17;;;3.07;;
14975;SDS011;7584;60.468;25.126;2023-04-26T04:37:59;5.30;;;2.77;;
14975;SDS011;7584;60.468;25.126;2023-04-26T04:40:25;7.93;;;3.27;;
14975;SDS011;7584;60.468;25.126;2023-04-26T04:42:51;4.97;;;2.90;;
14975;SDS011;7584;60.468;25.126;2023-04-26T04:45:17;5.77;;;3.30;;
14975;SDS011;7584;60.468;25.126;2023-04-26T04:47:43;12.20;;;3.53;;
14975;SDS011;7584;60.468;25.126;2023-04-26T04:50:09;6.07;;;3.20;;
14975;SDS011;7584;60.468;25.126;2023-04-26T04:52:34;3.70;;;3.27;;
14975;SDS011;7584;60.468;25.126;2023-04-26T04:55:00;9.67;;;3.73;;
14975;SDS011;7584;60.468;25.126;2023-04-26T04:57:26;4.90;;;3.20;;
14975;SDS011;7584;60.468;25.126;2023-04-26T04:59:51;6.37;;;3.30;;
14975;SDS011;7584;60.468;25.126;2023-04-26T05:02:17;3.30;;;2.90;;
14975;SDS011;7584;60.468;25.126;2023-04-26T05:04:42;10.57;;;4.00;;
14975;SDS011;7584;60.468;25.126;2023-04-26T05:07:07;6.03;;;2.90;;
14975;SDS011;7584;60.468;25.126;2023-04-26T05:09:33;7.50;;;3.87;;
14975;SDS011;7584;60.468;25.126;2023-04-26T05:11:59;7.47;;;3.30;;
14975;SDS011;7584;60.468;25.126;2023-04-26T05:14:24;6.40;;;3.33;;
14975;SDS011;7584;60.468;25.126;2023-04-26T05:16:50;7.00;;;3.73;;
14975;SDS011;7584;60.468;25.126;2023-04-26T05:19:15;6.00;;;3.07;;
14975;SDS011;7584;60.468;25.126;2023-04-26T05:21:40;5.57;;;3.50;;
14975;SDS011;7584;60.468;25.126;2023-04-26T05:24:06;10.40;;;3.23;;
14975;SDS011;7584;60.468;25.126;2023-04-26T05:26:31;4.00;;;3.10;;
14975;SDS011;7584;60.468;25.126;2023-04-26T05:28:56;6.07;;;3.80;;
14975;SDS011;7584;60.468;25.126;2023-04-26T05:31:22;6.83;;;3.70;;
14975;SDS011;7584;60.468;25.126;2023-04-26T05:33:47;6.10;;;3.20;;
14975;SDS011;7584;60.468;25.126;2023-04-26T05:36:12;8.83;;;3.70;;
14975;SDS011;7584;60.468;25.126;2023-04-26T05:38:37;8.17;;;3.40;;
14975;SDS011;7584;60.468;25.126;2023-04-26T05:41:03;4.60;;;3.60;;
14975;SDS011;7584;60.468;25.126;2023-04-26T05:43:28;8.67;;;3.73;;
14975;SDS011;7584;60.468;25.126;2023-04-26T05:45:54;5.07;;;2.93;;
14975;SDS011;7584;60.468;25.126;2023-04-26T05:48:20;4.63;;;3.50;;
14975;SDS011;7584;60.468;25.126;2023-04-26T05:50:46;6.40;;;3.40;;
14975;SDS011;7584;60.468;25.126;2023-04-26T05:53:11;4.57;;;3.50;;
14975;SDS011;7584;60.468;25.126;2023-04-26T05:55:37;5.40;;;3.70;;
14975;SDS011;7584;60.468;25.126;2023-04-26T05:58:02;5.97;;;3.37;;
14975;SDS011;7584;60.468;25.126;2023-04-26T06:00:29;5.87;;;3.67;;
14975;SDS011;7584;60.468;25.126;2023-04-26T06:02:54;8.73;;;3.77;;
14975;SDS011;7584;60.468;25.126;2023-04-26T06:05:19;8.97;;;3.00;;
14975;SDS011;7584;60.468;25.126;2023-04-26T06:07:45;8.27;;;3.53;;
14975;SDS011;7584;60.468;25.126;2023-04-26T06:10:10;7.07;;;3.57;;
14975;SDS011;7584;60.468;25.126;2023-04-26T06:12:37;6.87;;;3.37;;
14975;SDS011;7584;60.468;25.126;2023-04-26T06:15:02;7.47;;;3.53;;
14975;SDS011;7584;60.468;25.126;2023-04-26T06:17:27;8.03;;;3.40;;
14975;SDS011;7584;60.468;25.126;2023-04-26T06:19:52;5.60;;;3.47;;
14975;SDS011;7584;60.468;25.126;2023-04-26T06:22:18;9.27;;;3.73;;
14975;SDS011;7584;60.468;25.126;2023-04-26T06:24:43;8.80;;;4.33;;
14975;SDS011;7584;60.468;25.126;2023-04-26T06:27:08;6.43;;;3.97;;
14975;SDS011;7584;60.468;25.126;2023-04-26T06:29:34;7.03;;;4.27;;
14975;SDS011;7584;60.468;25.126;2023-04-26T06:31:59;7.07;;;4.50;;
14975;SDS011;7584;60.468;25.126;2023-04-26T06:34:24;9.17;;;4.20;;
14975;SDS011;7584;60.468;25.126;2023-04-26T06:36:49;8.05;;;4.05;;
14975;SDS011;7584;60.468;25.126;2023-04-26T06:39:15;8.90;;;4.22;;
14975;SDS011;7584;60.468;25.126;2023-04-26T06:41:41;7.68;;;4.35;;
14975;SDS011;7584;60.468;25.126;2023-04-26T06:44:07;7.78;;;4.45;;
14975;SDS011;7584;60.468;25.126;2023-04-26T06:46:32;5.35;;;4.65;;
14975;SDS011;7584;60.468;25.126;2023-04-26T06:48:58;6.25;;;4.65;;
14975;SDS011;7584;60.468;25.126;2023-04-26T06:51:23;10.75;;;5.00;;
14975;SDS011;7584;60.468;25.126;2023-04-26T06:53:48;7.57;;;4.93;;
14975;SDS011;7584;60.468;25.126;2023-04-26T06:56:14;7.60;;;5.03;;
14975;SDS011;7584;60.468;25.126;2023-04-26T06:58:44;6.53;;;4.72;;
14975;SDS011;7584;60.468;25.126;2023-04-26T07:01:21;7.97;;;4.97;;
14975;SDS011;7584;60.468;25.126;2023-04-26T07:03:47;9.98;;;5.35;;
14975;SDS011;7584;60.468;25.126;2023-04-26T07:06:12;5.63;;;5.03;;
14975;SDS011;7584;60.468;25.126;2023-04-26T07:08:37;6.75;;;4.88;;
14975;SDS011;7584;60.468;25.126;2023-04-26T07:11:08;14.05;;;5.05;;
14975;SDS011;7584;60.468;25.126;2023-04-26T07:13:33;14.05;;;5.05;;
14975;SDS011;7584;60.468;25.126;2023-04-26T07:15:58;11.88;;;5.20;;
14975;SDS011;7584;60.468;25.126;2023-04-26T07:18:24;9.18;;;5.90;;
14975;SDS011;7584;60.468;25.126;2023-04-26T07:20:49;10.95;;;4.97;;
14975;SDS011;7584;60.468;25.126;2023-04-26T07:23:14;11.88;;;5.90;;
14975;SDS011;7584;60.468;25.126;2023-04-26T07:25:40;9.48;;;5.97;;
14975;SDS011;7584;60.468;25.126;2023-04-26T07:28:05;8.60;;;5.95;;
14975;SDS011;7584;60.468;25.126;2023-04-26T07:30:30;13.82;;;5.50;;
14975;SDS011;7584;60.468;25.126;2023-04-26T07:32:56;9.25;;;5.30;;
14975;SDS011;7584;60.468;25.126;2023-04-26T07:35:21;8.02;;;5.40;;
14975;SDS011;7584;60.468;25.126;2023-04-26T07:37:47;11.57;;;5.63;;
14975;SDS011;7584;60.468;25.126;2023-04-26T07:40:12;12.25;;;6.35;;
14975;SDS011;7584;60.468;25.126;2023-04-26T07:42:37;12.95;;;5.82;;
14975;SDS011;7584;60.468;25.126;2023-04-26T07:45:03;7.70;;;6.07;;
14975;SDS011;7584;60.468;25.126;2023-04-26T07:47:29;9.30;;;5.50;;
14975;SDS011;7584;60.468;25.126;2023-04-26T07:49:54;7.43;;;5.00;;
14975;SDS011;7584;60.468;25.126;2023-04-26T07:52:19;11.68;;;4.10;;
14975;SDS011;7584;60.468;25.126;2023-04-26T07:54:45;10.18;;;4.57;;
14975;SDS011;7584;60.468;25.126;2023-04-26T07:57:11;9.10;;;4.63;;
14975;SDS011;7584;60.468;25.126;2023-04-26T07:59:36;7.13;;;4.25;;
14975;SDS011;7584;60.468;25.126;2023-04-26T08:02:01;6.93;;;4.57;;
14975;SDS011;7584;60.468;25.126;2023-04-26T08:04:31;6.93;;;3.97;;
14975;SDS011;7584;60.468;25.126;2023-04-26T08:06:57;7.80;;;4.00;;
14975;SDS011;7584;60.468;25.126;2023-04-26T08:09:22;6.43;;;4.18;;
14975;SDS011;7584;60.468;25.126;2023-04-26T08:11:48;6.43;;;3.95;;
14975;SDS011;7584;60.468;25.126;2023-04-26T08:14:13;6.20;;;4.50;;
14975;SDS011;7584;60.468;25.126;2023-04-26T08:16:38;7.00;;;4.20;;
14975;SDS011;7584;60.468;25.126;2023-04-26T08:19:05;7.57;;;4.30;;
14975;SDS011;7584;60.468;25.126;2023-04-26T08:21:31;5.40;;;3.40;;
14975;SDS011;7584;60.468;25.126;2023-04-26T08:23:56;9.77;;;3.70;;
14975;SDS011;7584;60.468;25.126;2023-04-26T08:26:22;8.40;;;3.35;;
14975;SDS011;7584;60.468;25.126;2023-04-26T08:28:47;3.97;;;3.42;;
14975;SDS011;7584;60.468;25.126;2023-04-26T08:31:12;5.50;;;3.22;;
14975;SDS011;7584;60.468;25.126;2023-04-26T08:33:37;6.45;;;3.33;;
14975;SDS011;7584;60.468;25.126;2023-04-26T08:36:03;8.63;;;3.72;;
14975;SDS011;7584;60.468;25.126;2023-04-26T08:38:29;4.82;;;3.03;;
14975;SDS011;7584;60.468;25.126;2023-04-26T08:40:54;12.10;;;3.58;;
14975;SDS011;7584;60.468;25.126;2023-04-26T08:43:21;5.30;;;3.47;;
14975;SDS011;7584;60.468;25.126;2023-04-26T08:45:47;4.72;;;3.28;;
14975;SDS011;7584;60.468;25.126;2023-04-26T08:48:12;6.38;;;3.13;;
14975;SDS011;7584;60.468;25.126;2023-04-26T08:50:42;5.45;;;2.67;;
14975;SDS011;7584;60.468;25.126;2023-04-26T08:53:08;5.07;;;3.08;;
14975;SDS011;7584;60.468;25.126;2023-04-26T08:55:34;3.50;;;2.88;;
14975;SDS011;7584;60.468;25.126;2023-04-26T08:58:00;5.65;;;3.15;;
14975;SDS011;7584;60.468;25.126;2023-04-26T09:00:26;6.53;;;3.25;;
14975;SDS011;7584;60.468;25.126;2023-04-26T09:02:52;6.43;;;3.47;;
14975;SDS011;7584;60.468;25.126;2023-04-26T09:05:18;3.60;;;3.30;;
14975;SDS011;7584;60.468;25.126;2023-04-26T09:07:48;5.68;;;3.15;;
14975;SDS011;7584;60.468;25.126;2023-04-26T09:10:16;4.13;;;3.13;;
14975;SDS011;7584;60.468;25.126;2023-04-26T09:12:43;6.43;;;2.85;;
14975;SDS011;7584;60.468;25.126;2023-04-26T09:15:09;9.30;;;3.80;;
14975;SDS011;7584;60.468;25.126;2023-04-26T09:17:38;5.50;;;3.17;;
14975;SDS011;7584;60.468;25.126;2023-04-26T09:22:43;10.30;;;3.80;;
14975;SDS011;7584;60.468;25.126;2023-04-26T09:25:08;4.80;;;3.00;;
14975;SDS011;7584;60.468;25.126;2023-04-26T09:27:34;6.55;;;3.05;;
14975;SDS011;7584;60.468;25.126;2023-04-26T09:32:51;6.90;;;3.45;;
14975;SDS011;7584;60.468;25.126;2023-04-26T09:35:25;5.47;;;3.47;;
14975;SDS011;7584;60.468;25.126;2023-04-26T09:37:52;5.78;;;3.25;;
14975;SDS011;7584;60.468;25.126;2023-04-26T09:40:18;6.72;;;3.22;;
14975;SDS011;7584;60.468;25.126;2023-04-26T09:42:44;6.65;;;3.65;;
14975;SDS011;7584;60.468;25.126;2023-04-26T09:45:09;3.85;;;3.22;;
14975;SDS011;7584;60.468;25.126;2023-04-26T09:47:35;3.85;;;3.35;;
14975;SDS011;7584;60.468;25.126;2023-04-26T09:50:00;5.68;;;2.92;;
14975;SDS011;7584;60.468;25.126;2023-04-26T09:52:25;11.38;;;4.05;;
14975;SDS011;7584;60.468;25.126;2023-04-26T09:54:53;9.70;;;4.30;;
14975;SDS011;7584;60.468;25.126;2023-04-26T09:57:19;6.97;;;4.22;;
14975;SDS011;7584;60.468;25.126;2023-04-26T09:59:49;7.63;;;3.83;;
14975;SDS011;7584;60.468;25.126;2023-04-26T10:04:44;7.82;;;4.57;;
14975;SDS011;7584;60.468;25.126;2023-04-26T10:07:11;8.75;;;4.75;;
14975;SDS011;7584;60.468;25.126;2023-04-26T10:09:37;9.93;;;4.30;;
14975;SDS011;7584;60.468;25.126;2023-04-26T10:12:03;6.50;;;3.47;;
14975;SDS011;7584;60.468;25.126;2023-04-26T10:14:28;7.00;;;3.95;;
14975;SDS011;7584;60.468;25.126;2023-04-26T10:16:54;11.73;;;4.72;;
14975;SDS011;7584;60.468;25.126;2023-04-26T10:19:21;8.98;;;4.55;;
14975;SDS011;7584;60.468;25.126;2023-04-26T10:21:46;7.82;;;4.05;;
14975;SDS011;7584;60.468;25.126;2023-04-26T10:24:12;11.30;;;4.10;;
14975;SDS011;7584;60.468;25.126;2023-04-26T10:29:13;5.80;;;3.88;;
14975;SDS011;7584;60.468;25.126;2023-04-26T10:34:43;4.70;;;4.20;;
14975;SDS011;7584;60.468;25.126;2023-04-26T10:39:35;4.35;;;3.40;;
14975;SDS011;7584;60.468;25.126;2023-04-26T10:44:47;5.43;;;3.17;;
14975;SDS011;7584;60.468;25.126;2023-04-26T10:47:22;5.78;;;2.53;;
14975;SDS011;7584;60.468;25.126;2023-04-26T10:49:48;3.22;;;2.50;;
14975;SDS011;7584;60.468;25.126;2023-04-26T10:52:16;7.88;;;3.17;;
14975;SDS011;7584;60.468;25.126;2023-04-26T10:54:48;3.88;;;2.42;;
14975;SDS011;7584;60.468;25.126;2023-04-26T10:57:13;5.18;;;2.88;;
14975;SDS011;7584;60.468;25.126;2023-04-26T10:59:39;3.40;;;1.90;;
14975;SDS011;7584;60.468;25.126;2023-04-26T11:02:08;3.80;;;2.00;;
14975;SDS011;7584;60.468;25.126;2023-04-26T11:04:49;4.88;;;2.00;;
14975;SDS011;7584;60.468;25.126;2023-04-26T11:07:14;3.45;;;1.85;;
14975;SDS011;7584;60.468;25.126;2023-04-26T11:09:40;4.07;;;2.33;;
14975;SDS011;7584;60.468;25.126;2023-04-26T11:12:12;4.70;;;2.20;;
14975;SDS011;7584;60.468;25.126;2023-04-26T11:14:39;3.83;;;2.45;;
14975;SDS011;7584;60.468;25.126;2023-04-26T11:17:06;3.55;;;1.90;;
14975;SDS011;7584;60.468;25.126;2023-04-26T11:19:32;6.72;;;2.10;;
14975;SDS011;7584;60.468;25.126;2023-04-26T11:21:58;5.25;;;1.95;;
14975;SDS011;7584;60.468;25.126;2023-04-26T11:24:25;4.82;;;2.42;;
14975;SDS011;7584;60.468;25.126;2023-04-26T11:26:51;3.70;;;2.10;;
14975;SDS011;7584;60.468;25.126;2023-04-26T11:29:17;3.30;;;1.95;;
14975;SDS011;7584;60.468;25.126;2023-04-26T11:31:42;2.05;;;1.58;;
14975;SDS011;7584;60.468;25.126;2023-04-26T11:34:14;2.97;;;1.52;;
14975;SDS011;7584;60.468;25.126;2023-04-26T11:36:40;5.47;;;1.80;;
14975;SDS011;7584;60.468;25.126;2023-04-26T11:39:05;4.25;;;1.92;;
14975;SDS011;7584;60.468;25.126;2023-04-26T11:41:31;3.28;;;1.95;;
14975;SDS011;7584;60.468;25.126;2023-04-26T11:43:57;4.95;;;1.83;;
14975;SDS011;7584;60.468;25.126;2023-04-26T11:46:23;5.10;;;1.95;;
14975;SDS011;7584;60.468;25.126;2023-04-26T11:48:49;5.78;;;1.80;;
14975;SDS011;7584;60.468;25.126;2023-04-26T11:51:14;9.40;;;2.00;;
14975;SDS011;7584;60.468;25.126;2023-04-26T11:53:40;2.70;;;1.60;;
14975;SDS011;7584;60.468;25.126;2023-04-26T11:56:16;3.90;;;1.48;;
14975;SDS011;7584;60.468;25.126;2023-04-26T11:58:48;4.75;;;1.60;;
14975;SDS011;7584;60.468;25.126;2023-04-26T12:01:26;4.45;;;1.30;;
14975;SDS011;7584;60.468;25.126;2023-04-26T12:03:52;7.53;;;1.67;;
14975;SDS011;7584;60.468;25.126;2023-04-26T12:06:18;3.05;;;1.33;;
14975;SDS011;7584;60.468;25.126;2023-04-26T12:08:50;4.75;;;1.30;;
14975;SDS011;7584;60.468;25.126;2023-04-26T12:11:15;2.70;;;1.33;;
14975;SDS011;7584;60.468;25.126;2023-04-26T12:13:41;4.00;;;1.45;;
14975;SDS011;7584;60.468;25.126;2023-04-26T12:16:06;3.13;;;1.20;;
14975;SDS011;7584;60.468;25.126;2023-04-26T12:18:32;3.78;;;1.10;;
14975;SDS011;7584;60.468;25.126;2023-04-26T12:20:57;5.50;;;1.50;;
14975;SDS011;7584;60.468;25.126;2023-04-26T12:23:23;2.67;;;1.40;;
14975;SDS011;7584;60.468;25.126;2023-04-26T12:25:52;8.05;;;1.55;;
14975;SDS011;7584;60.468;25.126;2023-04-26T12:28:18;2.08;;;1.15;;
14975;SDS011;7584;60.468;25.126;2023-04-26T12:30:44;3.50;;;1.08;;
14975;SDS011;7584;60.468;25.126;2023-04-26T12:33:09;4.85;;;1.58;;
14975;SDS011;7584;60.468;25.126;2023-04-26T12:35:35;3.25;;;1.10;;
14975;SDS011;7584;60.468;25.126;2023-04-26T12:38:00;3.58;;;1.40;;
14975;SDS011;7584;60.468;25.126;2023-04-26T12:40:26;5.10;;;1.30;;
14975;SDS011;7584;60.468;25.126;2023-04-26T12:42:52;2.90;;;1.17;;
14975;SDS011;7584;60.468;25.126;2023-04-26T12:45:20;4.22;;;1.30;;
14975;SDS011;7584;60.468;25.126;2023-04-26T12:47:46;2.08;;;1.20;;
14975;SDS011;7584;60.468;25.126;2023-04-26T12:50:11;3.60;;;1.13;;
14975;SDS011;7584;60.468;25.126;2023-04-26T12:52:37;1.90;;;1.23;;
14975;SDS011;7584;60.468;25.126;2023-04-26T12:55:03;2.38;;;1.33;;
14975;SDS011;7584;60.468;25.126;2023-04-26T12:57:29;4.15;;;1.20;;
14975;SDS011;7584;60.468;25.126;2023-04-26T12:59:54;2.88;;;1.20;;
14975;SDS011;7584;60.468;25.126;2023-04-26T13:02:21;4.15;;;1.05;;
14975;SDS011;7584;60.468;25.126;2023-04-26T13:04:47;2.65;;;1.20;;
14975;SDS011;7584;60.468;25.126;2023-04-26T13:07:12;3.78;;;1.33;;
14975;SDS011;7584;60.468;25.126;2023-04-26T13:09:37;3.72;;;1.20;;
14975;SDS011;7584;60.468;25.126;2023-04-26T13:12:03;4.10;;;1.35;;
14975;SDS011;7584;60.468;25.126;2023-04-26T13:14:28;2.95;;;1.13;;
14975;SDS011;7584;60.468;25.126;2023-04-26T13:16:53;6.00;;;1.38;;
14975;SDS011;7584;60.468;25.126;2023-04-26T13:19:18;3.42;;;1.58;;
14975;SDS011;7584;60.468;25.126;2023-04-26T13:21:44;2.33;;;1.13;;
14975;SDS011;7584;60.468;25.126;2023-04-26T13:24:09;2.67;;;1.30;;
14975;SDS011;7584;60.468;25.126;2023-04-26T13:26:35;3.13;;;1.30;;
14975;SDS011;7584;60.468;25.126;2023-04-26T13:29:00;3.53;;;1.33;;
14975;SDS011;7584;60.468;25.126;2023-04-26T13:31:26;3.83;;;1.73;;
14975;SDS011;7584;60.468;25.126;2023-04-26T13:33:51;6.00;;;1.60;;
14975;SDS011;7584;60.468;25.126;2023-04-26T13:36:16;8.07;;;1.70;;
14975;SDS011;7584;60.468;25.126;2023-04-26T13:38:42;4.47;;;1.63;;
14975;SDS011;7584;60.468;25.126;2023-04-26T13:41:07;4.03;;;1.67;;
14975;SDS011;7584;60.468;25.126;2023-04-26T13:43:33;3.25;;;1.52;;
14975;SDS011;7584;60.468;25.126;2023-04-26T13:45:58;3.05;;;1.42;;
14975;SDS011;7584;60.468;25.126;2023-04-26T13:48:24;3.78;;;1.48;;
14975;SDS011;7584;60.468;25.126;2023-04-26T13:50:49;2.05;;;1.40;;
14975;SDS011;7584;60.468;25.126;2023-04-26T13:53:14;3.17;;;1.52;;
14975;SDS011;7584;60.468;25.126;2023-04-26T13:55:40;6.47;;;1.30;;
14975;SDS011;7584;60.468;25.126;2023-04-26T13:58:06;3.33;;;1.40;;
14975;SDS011;7584;60.468;25.126;2023-04-26T14:00:31;4.68;;;1.25;;
14975;SDS011;7584;60.468;25.126;2023-04-26T14:02:56;5.82;;;1.20;;
14975;SDS011;7584;60.468;25.126;2023-04-26T14:05:21;2.65;;;1.15;;
14975;SDS011;7584;60.468;25.126;2023-04-26T14:07:47;3.63;;;1.27;;
14975;SDS011;7584;60.468;25.126;2023-04-26T14:10:12;8.02;;;1.15;;
14975;SDS011;7584;60.468;25.126;2023-04-26T14:12:38;2.72;;;1.02;;
14975;SDS011;7584;60.468;25.126;2023-04-26T14:15:03;4.30;;;1.33;;
14975;SDS011;7584;60.468;25.126;2023-04-26T14:17:30;2.50;;;1.35;;
14975;SDS011;7584;60.468;25.126;2023-04-26T14:19:56;2.95;;;1.45;;
14975;SDS011;7584;60.468;25.126;2023-04-26T14:22:21;3.03;;;1.17;;
14975;SDS011;7584;60.468;25.126;2023-04-26T14:24:47;4.95;;;1.30;;
14975;SDS011;7584;60.468;25.126;2023-04-26T14:27:12;6.13;;;1.10;;
14975;SDS011;7584;60.468;25.126;2023-04-26T14:29:38;2.60;;;1.10;;
14975;SDS011;7584;60.468;25.126;2023-04-26T14:32:03;2.65;;;1.10;;
14975;SDS011;7584;60.468;25.126;2023-04-26T14:34:29;2.83;;;1.08;;
14975;SDS011;7584;60.468;25.126;2023-04-26T14:36:54;4.28;;;1.33;;
14975;SDS011;7584;60.468;25.126;2023-04-26T14:39:24;4.30;;;1.77;;
14975;SDS011;7584;60.468;25.126;2023-04-26T14:41:50;2.58;;;1.25;;
14975;SDS011;7584;60.468;25.126;2023-04-26T14:44:15;3.67;;;1.17;;
14975;SDS011;7584;60.468;25.126;2023-04-26T14:46:41;2.85;;;1.23;;
14975;SDS011;7584;60.468;25.126;2023-04-26T14:49:06;4.28;;;1.30;;
14975;SDS011;7584;60.468;25.126;2023-04-26T14:51:31;3.85;;;1.27;;
14975;SDS011;7584;60.468;25.126;2023-04-26T14:53:56;2.65;;;1.10;;
14975;SDS011;7584;60.468;25.126;2023-04-26T14:56:22;3.13;;;1.30;;
14975;SDS011;7584;60.468;25.126;2023-04-26T14:58:47;4.80;;;1.40;;